sensor_id;sensor_type;location;lat;lon;timestamp;P1;durP1;ratioP1;P2;durP2;ratioP2
60006;SDS011;45863;50.336;3.536;2023-03-26T00:00:52;16.50;;;4.68;;
60006;SDS011;45863;50.336;3.536;2023-03-26T00:03:19;19.58;;;3.67;;
60006;SDS011;45863;50.336;3.536;2023-03-26T00:05:46;19.17;;;4.32;;
60006;SDS011;45863;50.336;3.536;2023-03-26T00:08:12;29.48;;;5.65;;
60006;SDS011;45863;50.336;3.536;2023-03-26T00:10:38;25.10;;;4.75;;
60006;SDS011;45863;50.336;3.536;2023-03-26T00:13:04;19.90;;;3.65;;
60006;SDS011;45863;50.336;3.536;2023-03-26T00:15:30;18.23;;;3.60;;
60006;SDS011;45863;50.336;3.536;2023-03-26T00:17:56;23.95;;;4.65;;
60006;SDS011;45863;50.336;3.536;2023-03-26T00:20:21;17.33;;;4.33;;
60006;SDS011;45863;50.336;3.536;2023-03-26T00:22:47;25.63;;;4.75;;
60006;SDS011;45863;50.336;3.536;2023-03-26T00:25:12;30.38;;;5.45;;
60006;SDS011;45863;50.336;3.536;2023-03-26T00:27:38;18.80;;;3.72;;
60006;SDS011;45863;50.336;3.536;2023-03-26T00:30:04;18.60;;;4.45;;
60006;SDS011;45863;50.336;3.536;2023-03-26T00:32:30;25.98;;;5.35;;
60006;SDS011;45863;50.336;3.536;2023-03-26T00:34:58;18.77;;;3.45;;
60006;SDS011;45863;50.336;3.536;2023-03-26T00:37:25;20.67;;;4.40;;
60006;SDS011;45863;50.336;3.536;2023-03-26T00:39:51;25.50;;;3.80;;
60006;SDS011;45863;50.336;3.536;2023-03-26T00:42:16;18.17;;;4.53;;
60006;SDS011;45863;50.336;3.536;2023-03-26T00:44:42;15.68;;;4.20;;
60006;SDS011;45863;50.336;3.536;2023-03-26T00:47:07;20.50;;;4.30;;
60006;SDS011;45863;50.336;3.536;2023-03-26T00:49:32;26.17;;;4.53;;
60006;SDS011;45863;50.336;3.536;2023-03-26T00:51:57;20.95;;;5.18;;
60006;SDS011;45863;50.336;3.536;2023-03-26T00:54:22;22.30;;;3.75;;
60006;SDS011;45863;50.336;3.536;2023-03-26T00:56:48;18.75;;;4.38;;
60006;SDS011;45863;50.336;3.536;2023-03-26T00:59:13;21.70;;;4.87;;
60006;SDS011;45863;50.336;3.536;2023-03-26T01:01:38;22.27;;;4.40;;
60006;SDS011;45863;50.336;3.536;2023-03-26T01:04:23;21.77;;;3.92;;
60006;SDS011;45863;50.336;3.536;2023-03-26T01:06:51;21.15;;;4.35;;
60006;SDS011;45863;50.336;3.536;2023-03-26T01:09:17;18.42;;;4.45;;
60006;SDS011;45863;50.336;3.536;2023-03-26T01:11:43;18.10;;;4.15;;
60006;SDS011;45863;50.336;3.536;2023-03-26T01:14:10;18.60;;;4.07;;
60006;SDS011;45863;50.336;3.536;2023-03-26T01:16:37;21.67;;;3.70;;
60006;SDS011;45863;50.336;3.536;2023-03-26T01:19:07;20.08;;;3.88;;
60006;SDS011;45863;50.336;3.536;2023-03-26T01:21:34;21.33;;;3.72;;
60006;SDS011;45863;50.336;3.536;2023-03-26T01:29:58;27.05;;;5.18;;
60006;SDS011;45863;50.336;3.536;2023-03-26T01:39:43;19.85;;;3.90;;
60006;SDS011;45863;50.336;3.536;2023-03-26T01:45:03;22.63;;;4.05;;
60006;SDS011;45863;50.336;3.536;2023-03-26T01:47:31;19.05;;;4.55;;
60006;SDS011;45863;50.336;3.536;2023-03-26T01:49:56;25.40;;;4.60;;
60006;SDS011;45863;50.336;3.536;2023-03-26T01:52:22;18.27;;;4.40;;
60006;SDS011;45863;50.336;3.536;2023-03-26T01:54:50;18.05;;;3.90;;
60006;SDS011;45863;50.336;3.536;2023-03-26T01:57:23;15.82;;;4.10;;
60006;SDS011;45863;50.336;3.536;2023-03-26T01:59:57;21.33;;;4.43;;
60006;SDS011;45863;50.336;3.536;2023-03-26T02:02:27;23.15;;;5.20;;
60006;SDS011;45863;50.336;3.536;2023-03-26T02:07:26;24.38;;;4.78;;
60006;SDS011;45863;50.336;3.536;2023-03-26T02:09:59;24.33;;;4.05;;
60006;SDS011;45863;50.336;3.536;2023-03-26T02:12:26;19.83;;;4.50;;
60006;SDS011;45863;50.336;3.536;2023-03-26T02:14:51;25.08;;;3.85;;
60006;SDS011;45863;50.336;3.536;2023-03-26T02:17:17;14.68;;;3.65;;
60006;SDS011;45863;50.336;3.536;2023-03-26T02:19:43;21.55;;;4.20;;
60006;SDS011;45863;50.336;3.536;2023-03-26T02:22:08;19.35;;;3.85;;
60006;SDS011;45863;50.336;3.536;2023-03-26T02:24:35;18.95;;;4.47;;
60006;SDS011;45863;50.336;3.536;2023-03-26T02:27:01;26.73;;;4.72;;
60006;SDS011;45863;50.336;3.536;2023-03-26T02:29:26;22.35;;;4.45;;
60006;SDS011;45863;50.336;3.536;2023-03-26T02:31:51;18.20;;;3.90;;
60006;SDS011;45863;50.336;3.536;2023-03-26T02:34:17;16.10;;;4.20;;
60006;SDS011;45863;50.336;3.536;2023-03-26T02:36:42;23.90;;;4.43;;
60006;SDS011;45863;50.336;3.536;2023-03-26T02:39:08;19.05;;;3.35;;
60006;SDS011;45863;50.336;3.536;2023-03-26T02:41:34;24.48;;;3.65;;
60006;SDS011;45863;50.336;3.536;2023-03-26T02:43:59;19.95;;;4.13;;
60006;SDS011;45863;50.336;3.536;2023-03-26T02:46:25;15.00;;;3.57;;
60006;SDS011;45863;50.336;3.536;2023-03-26T02:48:50;22.65;;;3.58;;
60006;SDS011;45863;50.336;3.536;2023-03-26T02:51:15;23.88;;;4.50;;
60006;SDS011;45863;50.336;3.536;2023-03-26T02:53:42;24.50;;;3.90;;
60006;SDS011;45863;50.336;3.536;2023-03-26T02:56:07;18.50;;;4.35;;
60006;SDS011;45863;50.336;3.536;2023-03-26T02:58:32;20.02;;;4.10;;
60006;SDS011;45863;50.336;3.536;2023-03-26T03:00:58;24.23;;;4.78;;
60006;SDS011;45863;50.336;3.536;2023-03-26T03:03:23;26.17;;;5.03;;
60006;SDS011;45863;50.336;3.536;2023-03-26T03:05:52;19.27;;;3.63;;
60006;SDS011;45863;50.336;3.536;2023-03-26T03:08:18;19.85;;;3.53;;
60006;SDS011;45863;50.336;3.536;2023-03-26T03:10:54;20.02;;;4.03;;
60006;SDS011;45863;50.336;3.536;2023-03-26T03:13:19;22.38;;;3.53;;
60006;SDS011;45863;50.336;3.536;2023-03-26T03:15:45;26.63;;;4.18;;
60006;SDS011;45863;50.336;3.536;2023-03-26T03:18:10;18.63;;;3.70;;
60006;SDS011;45863;50.336;3.536;2023-03-26T03:20:35;17.10;;;3.27;;
60006;SDS011;45863;50.336;3.536;2023-03-26T03:23:01;22.20;;;3.80;;
60006;SDS011;45863;50.336;3.536;2023-03-26T03:25:26;22.33;;;3.58;;
60006;SDS011;45863;50.336;3.536;2023-03-26T03:27:52;15.68;;;3.17;;
60006;SDS011;45863;50.336;3.536;2023-03-26T03:30:17;18.88;;;3.88;;
60006;SDS011;45863;50.336;3.536;2023-03-26T03:32:43;22.48;;;4.00;;
60006;SDS011;45863;50.336;3.536;2023-03-26T03:35:08;29.35;;;3.70;;
60006;SDS011;45863;50.336;3.536;2023-03-26T03:37:33;18.20;;;3.37;;
60006;SDS011;45863;50.336;3.536;2023-03-26T03:39:58;20.45;;;4.47;;
60006;SDS011;45863;50.336;3.536;2023-03-26T03:42:24;16.67;;;3.22;;
60006;SDS011;45863;50.336;3.536;2023-03-26T03:44:51;18.33;;;3.35;;
60006;SDS011;45863;50.336;3.536;2023-03-26T03:47:16;14.82;;;4.03;;
60006;SDS011;45863;50.336;3.536;2023-03-26T03:49:41;12.55;;;3.78;;
60006;SDS011;45863;50.336;3.536;2023-03-26T03:52:06;15.88;;;4.30;;
60006;SDS011;45863;50.336;3.536;2023-03-26T03:54:32;25.92;;;3.65;;
60006;SDS011;45863;50.336;3.536;2023-03-26T03:56:57;14.27;;;3.10;;
60006;SDS011;45863;50.336;3.536;2023-03-26T03:59:22;13.93;;;3.72;;
60006;SDS011;45863;50.336;3.536;2023-03-26T04:01:48;23.08;;;3.03;;
60006;SDS011;45863;50.336;3.536;2023-03-26T04:04:14;24.42;;;3.47;;
60006;SDS011;45863;50.336;3.536;2023-03-26T04:06:40;16.75;;;3.28;;
60006;SDS011;45863;50.336;3.536;2023-03-26T04:09:05;15.70;;;3.60;;
60006;SDS011;45863;50.336;3.536;2023-03-26T04:11:30;22.52;;;3.08;;
60006;SDS011;45863;50.336;3.536;2023-03-26T04:13:56;12.05;;;2.47;;
60006;SDS011;45863;50.336;3.536;2023-03-26T04:16:21;12.73;;;2.53;;
60006;SDS011;45863;50.336;3.536;2023-03-26T04:18:46;11.35;;;3.15;;
60006;SDS011;45863;50.336;3.536;2023-03-26T04:21:11;16.38;;;2.25;;
60006;SDS011;45863;50.336;3.536;2023-03-26T04:23:39;11.80;;;2.15;;
60006;SDS011;45863;50.336;3.536;2023-03-26T04:26:06;17.83;;;3.30;;
60006;SDS011;45863;50.336;3.536;2023-03-26T04:31:12;12.48;;;2.75;;
60006;SDS011;45863;50.336;3.536;2023-03-26T04:33:40;18.60;;;2.88;;
60006;SDS011;45863;50.336;3.536;2023-03-26T04:36:10;8.27;;;2.65;;
60006;SDS011;45863;50.336;3.536;2023-03-26T04:38:39;6.90;;;1.65;;
60006;SDS011;45863;50.336;3.536;2023-03-26T04:41:04;13.60;;;2.83;;
60006;SDS011;45863;50.336;3.536;2023-03-26T04:43:32;7.78;;;1.80;;
60006;SDS011;45863;50.336;3.536;2023-03-26T04:45:59;11.45;;;2.20;;
60006;SDS011;45863;50.336;3.536;2023-03-26T04:48:27;11.38;;;2.17;;
60006;SDS011;45863;50.336;3.536;2023-03-26T04:50:52;9.35;;;1.92;;
60006;SDS011;45863;50.336;3.536;2023-03-26T04:53:18;11.25;;;2.10;;
60006;SDS011;45863;50.336;3.536;2023-03-26T04:56:47;9.45;;;1.90;;
60006;SDS011;45863;50.336;3.536;2023-03-26T04:58:40;11.68;;;2.03;;
60006;SDS011;45863;50.336;3.536;2023-03-26T05:01:05;7.18;;;1.88;;
60006;SDS011;45863;50.336;3.536;2023-03-26T05:03:31;8.90;;;1.95;;
60006;SDS011;45863;50.336;3.536;2023-03-26T05:05:58;9.52;;;1.70;;
60006;SDS011;45863;50.336;3.536;2023-03-26T05:08:24;6.30;;;1.88;;
60006;SDS011;45863;50.336;3.536;2023-03-26T05:10:50;7.18;;;2.17;;
60006;SDS011;45863;50.336;3.536;2023-03-26T05:13:16;7.85;;;1.85;;
60006;SDS011;45863;50.336;3.536;2023-03-26T05:15:41;10.52;;;1.83;;
60006;SDS011;45863;50.336;3.536;2023-03-26T05:18:06;6.90;;;1.42;;
60006;SDS011;45863;50.336;3.536;2023-03-26T05:20:32;12.18;;;1.80;;
60006;SDS011;45863;50.336;3.536;2023-03-26T05:22:58;7.05;;;1.75;;
60006;SDS011;45863;50.336;3.536;2023-03-26T05:25:23;8.30;;;2.15;;
60006;SDS011;45863;50.336;3.536;2023-03-26T05:27:48;8.32;;;1.73;;
60006;SDS011;45863;50.336;3.536;2023-03-26T05:30:15;7.55;;;2.15;;
60006;SDS011;45863;50.336;3.536;2023-03-26T05:32:40;6.50;;;1.80;;
60006;SDS011;45863;50.336;3.536;2023-03-26T05:35:06;9.13;;;2.10;;
60006;SDS011;45863;50.336;3.536;2023-03-26T05:37:31;10.07;;;1.70;;
60006;SDS011;45863;50.336;3.536;2023-03-26T05:39:57;7.03;;;1.70;;
60006;SDS011;45863;50.336;3.536;2023-03-26T05:42:22;8.13;;;1.70;;
60006;SDS011;45863;50.336;3.536;2023-03-26T05:44:48;5.15;;;1.65;;
60006;SDS011;45863;50.336;3.536;2023-03-26T05:47:13;5.82;;;1.88;;
60006;SDS011;45863;50.336;3.536;2023-03-26T05:49:38;8.05;;;1.85;;
60006;SDS011;45863;50.336;3.536;2023-03-26T05:52:03;5.85;;;1.40;;
60006;SDS011;45863;50.336;3.536;2023-03-26T05:54:29;9.50;;;1.95;;
60006;SDS011;45863;50.336;3.536;2023-03-26T05:56:54;5.32;;;1.48;;
60006;SDS011;45863;50.336;3.536;2023-03-26T05:59:21;10.27;;;1.90;;
60006;SDS011;45863;50.336;3.536;2023-03-26T06:01:46;9.43;;;1.80;;
60006;SDS011;45863;50.336;3.536;2023-03-26T06:04:12;8.10;;;2.35;;
60006;SDS011;45863;50.336;3.536;2023-03-26T06:06:37;6.07;;;1.55;;
60006;SDS011;45863;50.336;3.536;2023-03-26T06:09:03;6.13;;;1.70;;
60006;SDS011;45863;50.336;3.536;2023-03-26T06:11:29;5.53;;;1.65;;
60006;SDS011;45863;50.336;3.536;2023-03-26T06:13:55;9.38;;;1.75;;
60006;SDS011;45863;50.336;3.536;2023-03-26T06:16:20;5.57;;;1.67;;
60006;SDS011;45863;50.336;3.536;2023-03-26T06:18:46;5.88;;;1.40;;
60006;SDS011;45863;50.336;3.536;2023-03-26T06:21:11;5.93;;;1.50;;
60006;SDS011;45863;50.336;3.536;2023-03-26T06:23:36;6.43;;;1.65;;
60006;SDS011;45863;50.336;3.536;2023-03-26T06:26:01;6.32;;;1.67;;
60006;SDS011;45863;50.336;3.536;2023-03-26T06:28:27;6.85;;;1.90;;
60006;SDS011;45863;50.336;3.536;2023-03-26T06:30:52;6.57;;;2.15;;
60006;SDS011;45863;50.336;3.536;2023-03-26T06:33:17;4.25;;;1.40;;
60006;SDS011;45863;50.336;3.536;2023-03-26T06:35:43;6.15;;;1.90;;
60006;SDS011;45863;50.336;3.536;2023-03-26T06:38:09;5.32;;;1.95;;
60006;SDS011;45863;50.336;3.536;2023-03-26T06:40:35;8.25;;;1.85;;
60006;SDS011;45863;50.336;3.536;2023-03-26T06:43:00;11.95;;;2.42;;
60006;SDS011;45863;50.336;3.536;2023-03-26T06:45:28;9.52;;;2.28;;
60006;SDS011;45863;50.336;3.536;2023-03-26T06:47:53;7.75;;;2.28;;
60006;SDS011;45863;50.336;3.536;2023-03-26T06:50:19;7.78;;;1.80;;
60006;SDS011;45863;50.336;3.536;2023-03-26T06:52:44;10.55;;;2.25;;
60006;SDS011;45863;50.336;3.536;2023-03-26T06:55:10;8.40;;;2.15;;
60006;SDS011;45863;50.336;3.536;2023-03-26T06:57:35;4.50;;;1.70;;
60006;SDS011;45863;50.336;3.536;2023-03-26T07:00:00;5.57;;;2.20;;
60006;SDS011;45863;50.336;3.536;2023-03-26T07:02:26;6.13;;;1.75;;
60006;SDS011;45863;50.336;3.536;2023-03-26T07:04:51;7.85;;;1.70;;
60006;SDS011;45863;50.336;3.536;2023-03-26T07:07:17;6.22;;;1.63;;
60006;SDS011;45863;50.336;3.536;2023-03-26T07:09:45;7.75;;;1.95;;
60006;SDS011;45863;50.336;3.536;2023-03-26T07:12:11;5.40;;;1.60;;
60006;SDS011;45863;50.336;3.536;2023-03-26T07:14:37;6.47;;;2.15;;
60006;SDS011;45863;50.336;3.536;2023-03-26T07:17:02;8.05;;;2.35;;
60006;SDS011;45863;50.336;3.536;2023-03-26T07:19:28;6.07;;;1.90;;
60006;SDS011;45863;50.336;3.536;2023-03-26T07:21:53;7.30;;;2.10;;
60006;SDS011;45863;50.336;3.536;2023-03-26T07:24:18;8.40;;;1.90;;
60006;SDS011;45863;50.336;3.536;2023-03-26T07:29:36;3.40;;;1.30;;
60006;SDS011;45863;50.336;3.536;2023-03-26T07:32:08;9.10;;;1.95;;
60006;SDS011;45863;50.336;3.536;2023-03-26T07:37:07;6.07;;;2.07;;
60006;SDS011;45863;50.336;3.536;2023-03-26T07:42:24;7.25;;;2.22;;
60006;SDS011;45863;50.336;3.536;2023-03-26T07:45:07;5.18;;;2.00;;
60006;SDS011;45863;50.336;3.536;2023-03-26T07:47:33;6.93;;;1.83;;
60006;SDS011;45863;50.336;3.536;2023-03-26T07:49:59;5.10;;;2.00;;
60006;SDS011;45863;50.336;3.536;2023-03-26T07:52:25;6.72;;;2.65;;
60006;SDS011;45863;50.336;3.536;2023-03-26T07:54:50;8.05;;;2.50;;
60006;SDS011;45863;50.336;3.536;2023-03-26T07:59:56;11.30;;;3.40;;
60006;SDS011;45863;50.336;3.536;2023-03-26T08:07:30;9.90;;;2.70;;
60006;SDS011;45863;50.336;3.536;2023-03-26T08:15:02;8.25;;;2.75;;
60006;SDS011;45863;50.336;3.536;2023-03-26T08:17:37;10.82;;;2.80;;
60006;SDS011;45863;50.336;3.536;2023-03-26T08:22:52;5.85;;;2.38;;
60006;SDS011;45863;50.336;3.536;2023-03-26T08:25:33;5.20;;;1.98;;
60006;SDS011;45863;50.336;3.536;2023-03-26T08:28:03;6.25;;;1.92;;
60006;SDS011;45863;50.336;3.536;2023-03-26T08:30:32;4.50;;;1.27;;
60006;SDS011;45863;50.336;3.536;2023-03-26T08:33:19;6.63;;;1.90;;
60006;SDS011;45863;50.336;3.536;2023-03-26T08:35:44;5.95;;;1.63;;
60006;SDS011;45863;50.336;3.536;2023-03-26T08:38:10;6.50;;;1.85;;
60006;SDS011;45863;50.336;3.536;2023-03-26T08:46:06;3.85;;;1.00;;
60006;SDS011;45863;50.336;3.536;2023-03-26T08:48:44;3.38;;;1.10;;
60006;SDS011;45863;50.336;3.536;2023-03-26T08:51:20;3.58;;;0.80;;
60006;SDS011;45863;50.336;3.536;2023-03-26T08:56:28;5.75;;;1.30;;
60006;SDS011;45863;50.336;3.536;2023-03-26T08:59:05;8.38;;;2.80;;
60006;SDS011;45863;50.336;3.536;2023-03-26T09:12:37;2.88;;;0.80;;
60006;SDS011;45863;50.336;3.536;2023-03-26T09:20:32;4.68;;;0.80;;
60006;SDS011;45863;50.336;3.536;2023-03-26T09:25:44;5.35;;;1.52;;
60006;SDS011;45863;50.336;3.536;2023-03-26T09:41:15;3.17;;;1.08;;
60006;SDS011;45863;50.336;3.536;2023-03-26T09:43:55;4.78;;;1.27;;
60006;SDS011;45863;50.336;3.536;2023-03-26T09:56:33;4.78;;;1.05;;
60006;SDS011;45863;50.336;3.536;2023-03-26T10:08:51;4.75;;;1.20;;
60006;SDS011;45863;50.336;3.536;2023-03-26T10:33:50;4.40;;;1.30;;
60006;SDS011;45863;50.336;3.536;2023-03-26T10:36:29;3.10;;;0.90;;
60006;SDS011;45863;50.336;3.536;2023-03-26T10:39:14;2.72;;;0.90;;
60006;SDS011;45863;50.336;3.536;2023-03-26T10:49:48;4.82;;;1.30;;
60006;SDS011;45863;50.336;3.536;2023-03-26T10:52:22;9.45;;;3.38;;
60006;SDS011;45863;50.336;3.536;2023-03-26T10:59:59;7.60;;;1.77;;
60006;SDS011;45863;50.336;3.536;2023-03-26T11:02:29;2.08;;;0.90;;
60006;SDS011;45863;50.336;3.536;2023-03-26T11:14:59;2.55;;;1.10;;
60006;SDS011;45863;50.336;3.536;2023-03-26T11:23:02;3.28;;;1.25;;
60006;SDS011;45863;50.336;3.536;2023-03-26T11:28:30;3.65;;;1.02;;
60006;SDS011;45863;50.336;3.536;2023-03-26T11:31:01;5.55;;;1.25;;
60006;SDS011;45863;50.336;3.536;2023-03-26T11:33:29;3.33;;;0.95;;
60006;SDS011;45863;50.336;3.536;2023-03-26T11:35:58;4.35;;;1.70;;
60006;SDS011;45863;50.336;3.536;2023-03-26T11:40:53;5.90;;;1.88;;
60006;SDS011;45863;50.336;3.536;2023-03-26T11:43:21;5.45;;;1.30;;
60006;SDS011;45863;50.336;3.536;2023-03-26T11:45:48;4.80;;;1.85;;
60006;SDS011;45863;50.336;3.536;2023-03-26T11:48:18;3.97;;;1.52;;
60006;SDS011;45863;50.336;3.536;2023-03-26T11:50:48;2.75;;;1.08;;
60006;SDS011;45863;50.336;3.536;2023-03-26T11:53:17;1.92;;;0.80;;
60006;SDS011;45863;50.336;3.536;2023-03-26T11:55:47;3.95;;;1.65;;
60006;SDS011;45863;50.336;3.536;2023-03-26T12:00:40;6.75;;;2.20;;
60006;SDS011;45863;50.336;3.536;2023-03-26T12:03:06;7.57;;;3.13;;
60006;SDS011;45863;50.336;3.536;2023-03-26T12:05:46;9.30;;;4.10;;
60006;SDS011;45863;50.336;3.536;2023-03-26T12:08:20;13.43;;;6.10;;
60006;SDS011;45863;50.336;3.536;2023-03-26T12:10:48;7.40;;;3.22;;
60006;SDS011;45863;50.336;3.536;2023-03-26T12:15:43;7.70;;;2.67;;
60006;SDS011;45863;50.336;3.536;2023-03-26T12:18:24;7.53;;;3.40;;
60006;SDS011;45863;50.336;3.536;2023-03-26T12:21:00;12.02;;;4.93;;
60006;SDS011;45863;50.336;3.536;2023-03-26T12:26:13;7.90;;;2.80;;
60006;SDS011;45863;50.336;3.536;2023-03-26T12:28:42;8.35;;;3.00;;
60006;SDS011;45863;50.336;3.536;2023-03-26T12:31:09;6.38;;;2.67;;
60006;SDS011;45863;50.336;3.536;2023-03-26T12:33:35;5.30;;;2.10;;
60006;SDS011;45863;50.336;3.536;2023-03-26T12:36:16;5.95;;;1.98;;
60006;SDS011;45863;50.336;3.536;2023-03-26T12:38:43;10.37;;;3.07;;
60006;SDS011;45863;50.336;3.536;2023-03-26T12:43:47;6.70;;;3.27;;
60006;SDS011;45863;50.336;3.536;2023-03-26T12:46:21;22.10;;;10.93;;
60006;SDS011;45863;50.336;3.536;2023-03-26T12:48:48;35.22;;;14.45;;
60006;SDS011;45863;50.336;3.536;2023-03-26T12:53:57;27.60;;;11.00;;
60006;SDS011;45863;50.336;3.536;2023-03-26T13:04:06;15.38;;;6.70;;
60006;SDS011;45863;50.336;3.536;2023-03-26T13:06:41;14.68;;;6.10;;
60006;SDS011;45863;50.336;3.536;2023-03-26T13:09:18;11.88;;;5.40;;
60006;SDS011;45863;50.336;3.536;2023-03-26T13:11:53;11.73;;;5.03;;
60006;SDS011;45863;50.336;3.536;2023-03-26T13:22:28;14.65;;;5.60;;
60006;SDS011;45863;50.336;3.536;2023-03-26T13:45:38;14.90;;;8.50;;
60006;SDS011;45863;50.336;3.536;2023-03-26T13:48:05;13.23;;;7.20;;
60006;SDS011;45863;50.336;3.536;2023-03-26T13:50:34;12.73;;;8.50;;
60006;SDS011;45863;50.336;3.536;2023-03-26T13:53:02;12.02;;;5.68;;
60006;SDS011;45863;50.336;3.536;2023-03-26T13:55:30;8.35;;;3.72;;
60006;SDS011;45863;50.336;3.536;2023-03-26T13:58:05;6.97;;;3.92;;
60006;SDS011;45863;50.336;3.536;2023-03-26T14:03:17;11.23;;;6.28;;
60006;SDS011;45863;50.336;3.536;2023-03-26T14:05:46;9.05;;;4.13;;
60006;SDS011;45863;50.336;3.536;2023-03-26T14:08:24;9.82;;;5.80;;
60006;SDS011;45863;50.336;3.536;2023-03-26T14:11:10;6.70;;;3.00;;
60006;SDS011;45863;50.336;3.536;2023-03-26T14:13:47;8.10;;;4.32;;
60006;SDS011;45863;50.336;3.536;2023-03-26T14:16:15;8.57;;;5.93;;
60006;SDS011;45863;50.336;3.536;2023-03-26T14:18:51;6.20;;;2.88;;
60006;SDS011;45863;50.336;3.536;2023-03-26T14:29:22;6.85;;;2.25;;
60006;SDS011;45863;50.336;3.536;2023-03-26T14:40:06;9.80;;;4.90;;
60006;SDS011;45863;50.336;3.536;2023-03-26T14:45:37;13.23;;;7.65;;
60006;SDS011;45863;50.336;3.536;2023-03-26T14:51:12;7.45;;;3.65;;
60006;SDS011;45863;50.336;3.536;2023-03-26T14:53:37;7.07;;;3.35;;
60006;SDS011;45863;50.336;3.536;2023-03-26T15:01:25;7.40;;;4.30;;
60006;SDS011;45863;50.336;3.536;2023-03-26T15:04:02;8.15;;;4.75;;
60006;SDS011;45863;50.336;3.536;2023-03-26T15:06:47;9.60;;;5.47;;
60006;SDS011;45863;50.336;3.536;2023-03-26T15:12:08;8.38;;;4.13;;
60006;SDS011;45863;50.336;3.536;2023-03-26T15:14:40;9.32;;;5.15;;
60006;SDS011;45863;50.336;3.536;2023-03-26T15:40:23;10.98;;;8.02;;
60006;SDS011;45863;50.336;3.536;2023-03-26T15:50:34;11.68;;;8.73;;
60006;SDS011;45863;50.336;3.536;2023-03-26T15:58:24;15.02;;;10.75;;
60006;SDS011;45863;50.336;3.536;2023-03-26T16:01:03;13.95;;;9.65;;
60006;SDS011;45863;50.336;3.536;2023-03-26T16:11:03;9.13;;;6.00;;
60006;SDS011;45863;50.336;3.536;2023-03-26T16:26:22;14.30;;;10.15;;
60006;SDS011;45863;50.336;3.536;2023-03-26T16:36:35;11.00;;;7.97;;
60006;SDS011;45863;50.336;3.536;2023-03-26T16:41:30;11.07;;;7.72;;
60006;SDS011;45863;50.336;3.536;2023-03-26T16:44:06;13.43;;;7.50;;
60006;SDS011;45863;50.336;3.536;2023-03-26T16:57:10;13.93;;;8.32;;
60006;SDS011;45863;50.336;3.536;2023-03-26T17:04:42;16.92;;;12.32;;
60006;SDS011;45863;50.336;3.536;2023-03-26T17:12:43;23.02;;;13.45;;
60006;SDS011;45863;50.336;3.536;2023-03-26T17:20:15;21.58;;;12.20;;
60006;SDS011;45863;50.336;3.536;2023-03-26T17:22:50;23.52;;;13.52;;
60006;SDS011;45863;50.336;3.536;2023-03-26T17:25:18;22.25;;;12.13;;
60006;SDS011;45863;50.336;3.536;2023-03-26T17:27:45;23.73;;;11.60;;
60006;SDS011;45863;50.336;3.536;2023-03-26T17:35:18;37.53;;;19.13;;
60006;SDS011;45863;50.336;3.536;2023-03-26T17:37:58;26.90;;;11.35;;
60006;SDS011;45863;50.336;3.536;2023-03-26T17:40:29;26.58;;;11.85;;
60006;SDS011;45863;50.336;3.536;2023-03-26T17:43:07;27.17;;;11.77;;
60006;SDS011;45863;50.336;3.536;2023-03-26T17:45:34;31.02;;;10.65;;
60006;SDS011;45863;50.336;3.536;2023-03-26T17:48:04;24.58;;;10.40;;
60006;SDS011;45863;50.336;3.536;2023-03-26T17:50:49;35.50;;;12.75;;
60006;SDS011;45863;50.336;3.536;2023-03-26T17:53:19;39.10;;;13.40;;
60006;SDS011;45863;50.336;3.536;2023-03-26T17:55:47;37.65;;;16.30;;
60006;SDS011;45863;50.336;3.536;2023-03-26T18:01:04;37.95;;;13.80;;
60006;SDS011;45863;50.336;3.536;2023-03-26T18:03:33;36.38;;;15.38;;
60006;SDS011;45863;50.336;3.536;2023-03-26T18:06:04;35.55;;;14.85;;
60006;SDS011;45863;50.336;3.536;2023-03-26T18:11:23;32.47;;;10.82;;
60006;SDS011;45863;50.336;3.536;2023-03-26T18:16:19;37.90;;;13.98;;
60006;SDS011;45863;50.336;3.536;2023-03-26T18:18:49;29.58;;;10.63;;
60006;SDS011;45863;50.336;3.536;2023-03-26T18:21:27;35.65;;;12.70;;
60006;SDS011;45863;50.336;3.536;2023-03-26T18:23:54;34.58;;;12.15;;
60006;SDS011;45863;50.336;3.536;2023-03-26T18:26:22;34.25;;;7.13;;
60006;SDS011;45863;50.336;3.536;2023-03-26T18:28:51;29.83;;;7.50;;
60006;SDS011;45863;50.336;3.536;2023-03-26T18:31:18;26.52;;;7.45;;
60006;SDS011;45863;50.336;3.536;2023-03-26T18:33:45;33.63;;;7.25;;
60006;SDS011;45863;50.336;3.536;2023-03-26T18:36:11;30.85;;;6.95;;
60006;SDS011;45863;50.336;3.536;2023-03-26T18:38:36;25.95;;;8.15;;
60006;SDS011;45863;50.336;3.536;2023-03-26T18:41:01;24.55;;;5.43;;
60006;SDS011;45863;50.336;3.536;2023-03-26T18:43:27;24.27;;;6.25;;
60006;SDS011;45863;50.336;3.536;2023-03-26T18:45:52;21.60;;;5.95;;
60006;SDS011;45863;50.336;3.536;2023-03-26T18:48:19;22.05;;;5.57;;
60006;SDS011;45863;50.336;3.536;2023-03-26T18:50:45;25.55;;;5.95;;
60006;SDS011;45863;50.336;3.536;2023-03-26T18:53:15;24.35;;;4.93;;
60006;SDS011;45863;50.336;3.536;2023-03-26T18:55:42;21.55;;;5.32;;
60006;SDS011;45863;50.336;3.536;2023-03-26T19:00:51;23.48;;;4.30;;
60006;SDS011;45863;50.336;3.536;2023-03-26T19:03:21;21.50;;;4.43;;
60006;SDS011;45863;50.336;3.536;2023-03-26T19:05:48;25.63;;;4.70;;
60006;SDS011;45863;50.336;3.536;2023-03-26T19:08:13;21.58;;;5.22;;
60006;SDS011;45863;50.336;3.536;2023-03-26T19:10:40;21.15;;;5.28;;
60006;SDS011;45863;50.336;3.536;2023-03-26T19:13:10;20.38;;;5.35;;
60006;SDS011;45863;50.336;3.536;2023-03-26T19:15:36;21.00;;;5.00;;
60006;SDS011;45863;50.336;3.536;2023-03-26T19:18:02;25.88;;;7.38;;
60006;SDS011;45863;50.336;3.536;2023-03-26T19:20:44;20.80;;;4.07;;
60006;SDS011;45863;50.336;3.536;2023-03-26T19:23:11;20.00;;;4.13;;
60006;SDS011;45863;50.336;3.536;2023-03-26T19:25:38;19.48;;;3.50;;
60006;SDS011;45863;50.336;3.536;2023-03-26T19:28:05;22.15;;;4.68;;
60006;SDS011;45863;50.336;3.536;2023-03-26T19:30:31;20.63;;;5.18;;
60006;SDS011;45863;50.336;3.536;2023-03-26T19:33:03;17.23;;;4.40;;
60006;SDS011;45863;50.336;3.536;2023-03-26T19:35:34;18.75;;;4.43;;
60006;SDS011;45863;50.336;3.536;2023-03-26T19:40:25;15.90;;;4.00;;
60006;SDS011;45863;50.336;3.536;2023-03-26T19:42:53;16.13;;;3.83;;
60006;SDS011;45863;50.336;3.536;2023-03-26T19:45:21;17.33;;;3.22;;
60006;SDS011;45863;50.336;3.536;2023-03-26T19:47:47;19.58;;;4.55;;
60006;SDS011;45863;50.336;3.536;2023-03-26T19:50:27;17.25;;;4.45;;
60006;SDS011;45863;50.336;3.536;2023-03-26T19:56:02;20.65;;;4.93;;
60006;SDS011;45863;50.336;3.536;2023-03-26T19:58:28;15.65;;;3.38;;
60006;SDS011;45863;50.336;3.536;2023-03-26T20:00:54;22.33;;;3.95;;
60006;SDS011;45863;50.336;3.536;2023-03-26T20:03:24;19.55;;;3.80;;
60006;SDS011;45863;50.336;3.536;2023-03-26T20:05:49;18.08;;;3.45;;
60006;SDS011;45863;50.336;3.536;2023-03-26T20:08:15;20.02;;;3.53;;
60006;SDS011;45863;50.336;3.536;2023-03-26T20:10:41;20.83;;;3.75;;
60006;SDS011;45863;50.336;3.536;2023-03-26T20:13:14;12.95;;;3.10;;
60006;SDS011;45863;50.336;3.536;2023-03-26T20:15:41;19.77;;;3.65;;
60006;SDS011;45863;50.336;3.536;2023-03-26T20:18:06;16.30;;;3.50;;
60006;SDS011;45863;50.336;3.536;2023-03-26T20:20:32;20.63;;;3.78;;
60006;SDS011;45863;50.336;3.536;2023-03-26T20:22:58;22.00;;;4.18;;
60006;SDS011;45863;50.336;3.536;2023-03-26T20:25:31;22.20;;;4.10;;
60006;SDS011;45863;50.336;3.536;2023-03-26T20:27:57;19.58;;;3.33;;
60006;SDS011;45863;50.336;3.536;2023-03-26T20:30:23;10.38;;;3.67;;
60006;SDS011;45863;50.336;3.536;2023-03-26T20:32:48;17.33;;;3.15;;
60006;SDS011;45863;50.336;3.536;2023-03-26T20:37:40;20.95;;;3.55;;
60006;SDS011;45863;50.336;3.536;2023-03-26T20:40:06;14.77;;;3.53;;
60006;SDS011;45863;50.336;3.536;2023-03-26T20:42:32;18.25;;;3.35;;
60006;SDS011;45863;50.336;3.536;2023-03-26T20:44:59;23.08;;;3.22;;